createdAt,value
2022-11-06T00:01:19.993Z,76.35
2022-11-06T00:03:46.684Z,76.32
2022-11-06T00:06:35.249Z,76.38
2022-11-06T00:09:05.293Z,76.32
2022-11-06T00:11:32.336Z,76.77
2022-11-06T00:14:00.723Z,76.57
2022-11-06T00:16:27.978Z,75.94
2022-11-06T00:18:54.809Z,76.24
2022-11-06T00:21:26.743Z,75.96
2022-11-06T00:23:54.588Z,75.53
2022-11-06T00:26:23.633Z,75.72
2022-11-06T00:28:50.711Z,75.97
2022-11-06T00:31:23.130Z,75.83
2022-11-06T00:33:49.861Z,75.68
2022-11-06T00:36:19.438Z,75.87
2022-11-06T00:38:46.383Z,75.56
2022-11-06T00:41:15.273Z,75.48
2022-11-06T00:43:43.116Z,75.89
2022-11-06T00:46:12.600Z,75.58
2022-11-06T00:48:40.680Z,75.70
2022-11-06T00:51:11.363Z,75.41
2022-11-06T00:53:38.544Z,75.40
2022-11-06T00:56:09.759Z,75.52
2022-11-06T00:58:36.875Z,75.71
2022-11-06T01:01:20.804Z,75.47
2022-11-06T01:03:51.359Z,75.39
2022-11-06T01:06:21.562Z,75.56
2022-11-06T01:08:48.851Z,75.78
2022-11-06T01:11:24.740Z,76.00
2022-11-06T01:13:55.218Z,75.69
2022-11-06T01:16:22.755Z,75.74
2022-11-06T01:18:49.955Z,75.63
2022-11-06T01:21:20.008Z,76.07
2022-11-06T01:23:47.528Z,75.40
2022-11-06T01:26:15.098Z,75.77
2022-11-06T01:28:42.155Z,75.35
2022-11-06T01:31:12.757Z,75.73
2022-11-06T01:33:40.124Z,75.97
2022-11-06T01:36:09.692Z,75.60
2022-11-06T01:38:36.528Z,75.35
2022-11-06T01:41:03.195Z,75.96
2022-11-06T01:43:50.264Z,75.61
2022-11-06T01:46:19.118Z,75.92
2022-11-06T01:48:55.727Z,75.89
2022-11-06T01:51:25.106Z,76.02
2022-11-06T01:53:52.766Z,75.78
2022-11-06T01:56:21.065Z,75.94
2022-11-06T01:58:51.013Z,75.64
2022-11-06T02:01:18.348Z,75.87
2022-11-06T02:04:11.695Z,75.74
2022-11-06T02:06:38.763Z,75.54
2022-11-06T02:09:11.339Z,75.63
2022-11-06T02:11:43.627Z,75.23
2022-11-06T02:14:17.563Z,75.49
2022-11-06T02:16:53.508Z,75.18
2022-11-06T02:19:39.637Z,75.71
2022-11-06T02:22:19.432Z,75.49
2022-11-06T02:25:07.159Z,74.95
2022-11-06T02:27:35.365Z,75.26
2022-11-06T02:30:11.740Z,75.21
2022-11-06T02:32:46.701Z,75.72
2022-11-06T02:35:19.565Z,75.51
2022-11-06T02:37:48.850Z,75.18
2022-11-06T02:40:17.599Z,76.01
2022-11-06T02:42:48.941Z,75.56
2022-11-06T02:45:17.666Z,75.46
2022-11-06T02:47:47.944Z,75.09
2022-11-06T02:50:24.343Z,75.40
2022-11-06T02:53:04.396Z,75.31
2022-11-06T02:55:33.894Z,75.19
2022-11-06T02:58:09.120Z,75.22
2022-11-06T03:00:37.337Z,75.44
2022-11-06T03:03:15.232Z,75.66
2022-11-06T03:05:59.678Z,75.20
2022-11-06T03:08:46.840Z,75.16
2022-11-06T03:11:22.111Z,75.53
2022-11-06T03:13:57.819Z,75.04
2022-11-06T03:16:27.430Z,75.32
2022-11-06T03:19:01.926Z,75.40
2022-11-06T03:21:37.183Z,74.73
2022-11-06T03:24:15.276Z,75.16
2022-11-06T03:26:48.767Z,74.95
2022-11-06T03:29:26.341Z,75.08
2022-11-06T03:31:59.566Z,75.30
2022-11-06T03:34:37.067Z,74.76
2022-11-06T03:37:16.192Z,74.60
2022-11-06T03:39:48.841Z,74.77
2022-11-06T03:42:21.188Z,74.86
2022-11-06T03:44:56.849Z,74.59
2022-11-06T03:47:36.785Z,74.53
2022-11-06T03:50:16.168Z,74.54
2022-11-06T03:53:05.696Z,73.77
2022-11-06T03:55:42.103Z,74.30
2022-11-06T03:58:18.977Z,73.77
2022-11-06T04:00:46.203Z,73.91
2022-11-06T04:03:25.860Z,74.16
2022-11-06T04:05:59.393Z,73.75
2022-11-06T04:08:46.701Z,74.23
2022-11-06T04:11:36.938Z,73.83
2022-11-06T04:14:05.968Z,74.11
2022-11-06T04:16:39.693Z,73.94
2022-11-06T04:19:13.563Z,73.72
2022-11-06T04:21:52.223Z,73.69
2022-11-06T04:24:43.564Z,73.38
2022-11-06T04:27:53.820Z,73.88
2022-11-06T04:30:20.873Z,73.56
2022-11-06T04:33:02.525Z,73.21
2022-11-06T04:35:34.936Z,73.30
2022-11-06T04:38:39.625Z,73.62
2022-11-06T04:41:42.260Z,72.95
2022-11-06T04:44:15.587Z,73.50
2022-11-06T04:47:19.868Z,73.94
2022-11-06T04:49:49.630Z,73.72
2022-11-06T04:52:20.027Z,73.32
2022-11-06T04:54:47.281Z,73.56
2022-11-06T04:57:14.224Z,74.20
2022-11-06T04:59:40.779Z,73.87
2022-11-06T05:02:07.400Z,73.96
2022-11-06T05:04:34.115Z,74.03
2022-11-06T05:07:00.897Z,73.85
2022-11-06T05:09:27.503Z,73.88
2022-11-06T05:11:54.142Z,73.63
2022-11-06T05:14:20.730Z,74.02
2022-11-06T05:16:47.275Z,73.71
2022-11-06T05:19:13.875Z,73.68
2022-11-06T05:21:59.087Z,73.60
2022-11-06T05:24:25.675Z,73.36
2022-11-06T05:26:57.900Z,73.84
2022-11-06T05:29:25.979Z,73.40
2022-11-06T05:31:52.601Z,73.44
2022-11-06T05:34:19.229Z,73.87
2022-11-06T05:36:45.767Z,73.61
2022-11-06T05:39:12.364Z,73.84
2022-11-06T05:41:38.943Z,73.82
2022-11-06T05:44:05.839Z,74.10
2022-11-06T05:46:49.706Z,73.73
2022-11-06T05:49:18.518Z,73.66
2022-11-06T05:51:45.708Z,74.31
2022-11-06T05:54:12.658Z,74.24
2022-11-06T05:56:39.235Z,73.79
2022-11-06T05:59:05.927Z,73.76
2022-11-06T06:01:32.594Z,73.96
2022-11-06T06:03:59.235Z,74.19
2022-11-06T06:06:26.661Z,74.02
2022-11-06T06:08:53.216Z,74.09
2022-11-06T06:11:19.844Z,74.50
2022-11-06T06:13:46.626Z,74.19
2022-11-06T06:16:13.297Z,74.56
2022-11-06T06:18:39.859Z,74.24
2022-11-06T06:21:06.506Z,74.36
2022-11-06T06:23:33.037Z,74.13
2022-11-06T06:25:59.589Z,73.91
2022-11-06T06:28:26.630Z,74.13
2022-11-06T06:30:58.568Z,74.05
2022-11-06T06:33:27.723Z,74.20
2022-11-06T06:35:54.343Z,74.30
2022-11-06T06:38:20.963Z,74.10
2022-11-06T06:40:47.579Z,74.55
2022-11-06T06:43:14.227Z,73.72
2022-11-06T06:45:40.977Z,74.07
2022-11-06T06:48:07.901Z,73.28
2022-11-06T06:50:34.456Z,73.38
2022-11-06T06:53:01.260Z,73.27
2022-11-06T06:55:27.787Z,74.57
2022-11-06T06:58:01.330Z,74.64
2022-11-06T07:00:29.164Z,74.99
2022-11-06T07:02:56.059Z,75.02
2022-11-06T07:05:23.086Z,74.67
2022-11-06T07:07:49.743Z,75.66
2022-11-06T07:10:16.723Z,74.84
2022-11-06T07:12:43.300Z,74.00
2022-11-06T07:15:10.571Z,73.93
2022-11-06T07:17:37.126Z,73.24
2022-11-06T07:20:04.787Z,72.91
2022-11-06T07:22:37.015Z,72.06
2022-11-06T07:25:05.670Z,71.92
2022-11-06T07:27:32.297Z,72.68
2022-11-06T07:30:00.525Z,71.78
2022-11-06T07:32:27.804Z,71.71
2022-11-06T07:34:54.478Z,71.14
2022-11-06T07:37:21.049Z,71.09
2022-11-06T07:39:47.590Z,71.00
2022-11-06T07:42:14.142Z,71.42
2022-11-06T07:44:40.750Z,71.25
2022-11-06T07:47:07.299Z,70.97
2022-11-06T07:49:33.850Z,71.16
2022-11-06T07:52:00.417Z,71.26
2022-11-06T07:54:26.918Z,71.42
2022-11-06T07:56:53.443Z,70.92
2022-11-06T07:59:19.999Z,71.39
2022-11-06T08:01:46.597Z,71.22
2022-11-06T08:04:13.285Z,71.54
2022-11-06T08:06:39.862Z,71.57
2022-11-06T08:09:09.643Z,71.13
2022-11-06T08:11:36.331Z,71.90
2022-11-06T08:14:03.450Z,71.32
2022-11-06T08:16:30.085Z,71.67
2022-11-06T08:18:56.738Z,71.32
2022-11-06T08:21:23.386Z,71.76
2022-11-06T08:23:49.985Z,72.03
2022-11-06T08:26:16.737Z,71.53
2022-11-06T08:28:43.375Z,72.24
2022-11-06T08:31:09.963Z,72.06
2022-11-06T08:33:38.341Z,71.75
2022-11-06T08:36:06.363Z,72.31
2022-11-06T08:38:33.287Z,72.35
2022-11-06T08:41:08.411Z,71.77
2022-11-06T08:43:36.138Z,71.82
2022-11-06T08:46:03.598Z,72.19
2022-11-06T08:48:31.726Z,72.19
2022-11-06T08:50:58.408Z,71.38
2022-11-06T08:53:25.091Z,71.61
2022-11-06T08:55:51.797Z,71.87
2022-11-06T08:58:18.505Z,71.56
2022-11-06T09:00:45.144Z,72.21
2022-11-06T09:03:18.054Z,70.79
2022-11-06T09:05:45.525Z,70.88
2022-11-06T09:08:13.128Z,70.73
2022-11-06T09:10:41.353Z,70.97
2022-11-06T09:13:08.656Z,71.03
2022-11-06T09:15:35.421Z,70.60
2022-11-06T09:18:02.185Z,70.40
2022-11-06T09:20:29.004Z,70.37
2022-11-06T09:23:00.614Z,69.55
2022-11-06T09:25:27.156Z,69.71
2022-11-06T09:27:58.818Z,69.46
2022-11-06T09:30:28.198Z,68.88
2022-11-06T09:32:57.570Z,69.03
2022-11-06T09:35:25.804Z,68.69
2022-11-06T09:37:52.393Z,68.43
2022-11-06T09:40:29.860Z,67.92
2022-11-06T09:43:08.539Z,67.97
2022-11-06T09:45:39.392Z,67.32
2022-11-06T09:48:20.195Z,67.02
2022-11-06T09:50:55.208Z,66.23
2022-11-06T09:53:34.439Z,66.95
2022-11-06T09:56:03.484Z,67.05
2022-11-06T09:58:38.748Z,67.02
2022-11-06T10:01:27.261Z,67.25
2022-11-06T10:04:00.211Z,67.00
2022-11-06T10:06:28.600Z,67.19
2022-11-06T10:09:01.382Z,66.72
2022-11-06T10:11:56.236Z,66.33
2022-11-06T10:14:47.137Z,66.95
2022-11-06T10:17:31.996Z,66.49
2022-11-06T10:20:23.844Z,66.66
2022-11-06T10:23:04.397Z,66.98
2022-11-06T10:25:53.531Z,66.81
2022-11-06T10:28:40.138Z,66.72
2022-11-06T10:31:24.270Z,65.96
2022-11-06T10:33:59.485Z,66.25
2022-11-06T10:36:51.471Z,66.50
2022-11-06T10:39:32.272Z,66.35
2022-11-06T10:42:13.349Z,66.61
2022-11-06T10:44:45.314Z,66.74
2022-11-06T10:47:19.449Z,66.95
2022-11-06T10:49:49.711Z,67.35
2022-11-06T10:52:40.217Z,67.28
2022-11-06T10:55:39.708Z,67.53
2022-11-06T10:58:15.751Z,67.75
2022-11-06T11:00:43.043Z,67.52
2022-11-06T11:03:21.432Z,67.51
2022-11-06T11:05:47.988Z,67.53
2022-11-06T11:08:43.468Z,67.63
2022-11-06T11:11:15.831Z,67.77
2022-11-06T11:13:56.116Z,67.46
2022-11-06T11:16:28.763Z,67.27
2022-11-06T11:19:14.452Z,67.81
2022-11-06T11:21:56.794Z,67.43
2022-11-06T11:24:23.887Z,67.73
2022-11-06T11:26:54.547Z,68.13
2022-11-06T11:29:29.242Z,67.08
2022-11-06T11:32:07.112Z,67.40
2022-11-06T11:34:49.239Z,67.55
2022-11-06T11:37:28.925Z,67.12
2022-11-06T11:39:55.598Z,67.21
2022-11-06T11:42:26.723Z,67.41
2022-11-06T11:45:08.703Z,67.34
2022-11-06T11:47:37.068Z,67.46
2022-11-06T11:50:18.734Z,67.34
2022-11-06T11:52:48.429Z,67.02
2022-11-06T11:55:21.225Z,66.96
2022-11-06T11:57:51.286Z,67.16
2022-11-06T12:00:22.776Z,66.94
2022-11-06T12:03:10.679Z,67.12
2022-11-06T12:05:40.660Z,66.95
2022-11-06T12:08:14.506Z,66.80
2022-11-06T12:10:43.264Z,66.71
2022-11-06T12:13:23.730Z,66.54
2022-11-06T12:15:57.597Z,66.53
2022-11-06T12:18:42.558Z,66.28
2022-11-06T12:21:21.067Z,66.35
2022-11-06T12:24:11.891Z,66.23
2022-11-06T12:26:52.133Z,66.87
2022-11-06T12:29:49.061Z,66.38
2022-11-06T12:32:33.346Z,66.74
2022-11-06T12:35:13.751Z,66.45
2022-11-06T12:38:11.039Z,66.67
2022-11-06T12:40:51.891Z,66.55
2022-11-06T12:43:26.039Z,66.85
2022-11-06T12:46:07.838Z,66.87
2022-11-06T12:48:45.857Z,66.70
2022-11-06T12:51:25.615Z,66.58
2022-11-06T12:54:07.497Z,67.14
2022-11-06T12:57:03.158Z,66.89
2022-11-06T12:59:35.695Z,66.76
2022-11-06T13:02:30.689Z,66.67
2022-11-06T13:05:22.946Z,66.63
2022-11-06T13:08:06.421Z,66.83
2022-11-06T13:10:35.848Z,66.94
2022-11-06T13:13:25.844Z,67.05
2022-11-06T13:16:14.031Z,67.01
2022-11-06T13:19:13.492Z,67.27
2022-11-06T13:21:52.221Z,67.31
2022-11-06T13:24:32.478Z,67.26
2022-11-06T13:27:10.919Z,67.02
2022-11-06T13:29:38.654Z,67.29
2022-11-06T13:32:12.020Z,67.56
2022-11-06T13:34:41.471Z,67.54
2022-11-06T13:37:16.401Z,67.02
2022-11-06T13:39:49.811Z,67.69
2022-11-06T13:42:29.280Z,67.59
2022-11-06T13:44:57.176Z,67.66
2022-11-06T13:47:46.956Z,67.79
2022-11-06T13:50:32.946Z,67.97
2022-11-06T13:53:24.738Z,68.56
2022-11-06T13:56:18.910Z,68.04
2022-11-06T13:59:10.353Z,68.41
2022-11-06T14:02:12.053Z,67.99
2022-11-06T14:04:38.647Z,68.04
2022-11-06T14:07:07.789Z,67.94
2022-11-06T14:09:36.232Z,68.09
2022-11-06T14:12:11.200Z,68.23
2022-11-06T14:14:40.665Z,68.62
2022-11-06T14:17:15.976Z,68.80
2022-11-06T14:19:50.229Z,68.70
2022-11-06T14:22:31.667Z,68.11
2022-11-06T14:25:01.911Z,68.40
2022-11-06T14:27:29.183Z,68.39
2022-11-06T14:30:01.335Z,68.29
2022-11-06T14:32:30.857Z,68.32
2022-11-06T14:34:58.588Z,68.18
2022-11-06T14:37:29.832Z,68.05
2022-11-06T14:39:57.651Z,68.12
2022-11-06T14:42:27.087Z,68.37
2022-11-06T14:44:57.326Z,68.85
2022-11-06T14:47:32.914Z,68.94
2022-11-06T14:50:07.281Z,68.66
2022-11-06T14:52:45.447Z,69.31
2022-11-06T14:55:26.943Z,69.42
2022-11-06T14:57:54.981Z,69.62
2022-11-06T15:00:35.828Z,69.60
2022-11-06T15:03:05.689Z,69.85
2022-11-06T15:05:42.073Z,70.18
2022-11-06T15:08:08.866Z,70.37
2022-11-06T15:10:44.698Z,70.47
2022-11-06T15:13:17.510Z,70.38
2022-11-06T15:15:46.761Z,70.19
2022-11-06T15:18:22.914Z,70.60
2022-11-06T15:20:59.634Z,70.78
2022-11-06T15:23:39.176Z,71.02
2022-11-06T15:26:22.055Z,71.48
2022-11-06T15:29:09.656Z,72.05
2022-11-06T15:31:37.492Z,72.17
2022-11-06T15:34:20.731Z,71.93
2022-11-06T15:36:53.160Z,72.60
2022-11-06T15:39:40.490Z,72.63
2022-11-06T15:42:16.371Z,72.54
2022-11-06T15:44:45.026Z,72.69
2022-11-06T15:47:20.620Z,72.78
2022-11-06T15:49:47.201Z,72.74
2022-11-06T15:52:18.680Z,72.96
2022-11-06T15:54:45.515Z,72.52
2022-11-06T15:57:15.061Z,72.77
2022-11-06T15:59:41.598Z,72.73
2022-11-06T16:02:18.251Z,72.86
2022-11-06T16:04:46.151Z,72.40
2022-11-06T16:07:12.973Z,72.41
2022-11-06T16:09:42.143Z,72.60
2022-11-06T16:12:15.215Z,72.74
2022-11-06T16:14:46.252Z,72.24
2022-11-06T16:17:25.807Z,72.50
2022-11-06T16:19:56.667Z,72.48
2022-11-06T16:22:30.666Z,72.43
2022-11-06T16:25:06.552Z,72.34
2022-11-06T16:27:34.979Z,72.36
2022-11-06T16:30:06.519Z,72.38
2022-11-06T16:32:39.855Z,72.36
2022-11-06T16:35:36.727Z,72.24
2022-11-06T16:38:39.010Z,72.29
2022-11-06T16:41:03.451Z,72.32
2022-11-06T16:43:30.123Z,72.57
2022-11-06T16:46:08.416Z,72.57
2022-11-06T16:48:37.387Z,72.37
2022-11-06T16:51:31.254Z,72.49
2022-11-06T16:54:00.334Z,72.66
2022-11-06T16:56:32.781Z,72.76
2022-11-06T16:59:15.232Z,72.34
2022-11-06T17:01:48.322Z,72.33
2022-11-06T17:04:29.780Z,72.33
2022-11-06T17:06:58.306Z,72.10
2022-11-06T17:09:35.847Z,71.68
2022-11-06T17:12:04.116Z,71.90
2022-11-06T17:14:32.689Z,71.72
2022-11-06T17:17:00.983Z,72.08
2022-11-06T17:19:28.592Z,72.21
2022-11-06T17:21:55.580Z,72.51
2022-11-06T17:24:38.208Z,72.93
2022-11-06T17:27:07.810Z,72.63
2022-11-06T17:29:36.499Z,72.24
2022-11-06T17:32:03.574Z,72.35
2022-11-06T17:34:30.121Z,72.21
2022-11-06T17:36:56.715Z,72.43
2022-11-06T17:39:23.352Z,72.51
2022-11-06T17:41:49.907Z,72.50
2022-11-06T17:44:17.373Z,72.57
2022-11-06T17:46:46.669Z,72.42
2022-11-06T17:49:17.954Z,72.28
2022-11-06T17:52:01.286Z,72.58
2022-11-06T17:54:33.589Z,72.59
2022-11-06T17:57:02.340Z,72.24
2022-11-06T17:59:28.929Z,72.07
2022-11-06T18:01:55.738Z,72.64
2022-11-06T18:04:25.429Z,72.27
2022-11-06T18:06:52.983Z,72.39
2022-11-06T18:09:20.804Z,72.13
2022-11-06T18:11:52.699Z,71.70
2022-11-06T18:14:20.422Z,71.32
2022-11-06T18:16:47.184Z,71.70
2022-11-06T18:19:16.545Z,71.73
2022-11-06T18:21:43.697Z,71.74
2022-11-06T18:24:10.264Z,71.63
2022-11-06T18:26:40.106Z,72.00
2022-11-06T18:29:08.206Z,72.30
2022-11-06T18:31:35.196Z,72.07
2022-11-06T18:34:02.045Z,72.60
2022-11-06T18:36:28.608Z,72.38
2022-11-06T18:38:55.176Z,72.43
2022-11-06T18:41:22.061Z,72.51
2022-11-06T18:43:49.038Z,72.47
2022-11-06T18:46:18.518Z,72.44
2022-11-06T18:48:45.178Z,72.42
2022-11-06T18:51:32.713Z,72.29
2022-11-06T18:54:04.904Z,72.38
2022-11-06T18:56:32.412Z,72.46
2022-11-06T18:59:00.325Z,72.65
2022-11-06T19:01:27.901Z,72.44
2022-11-06T19:03:54.569Z,72.46
2022-11-06T19:06:21.784Z,72.85
2022-11-06T19:08:49.077Z,72.60
2022-11-06T19:11:17.935Z,73.20
2022-11-06T19:13:47.877Z,72.89
2022-11-06T19:16:16.269Z,73.15
2022-11-06T19:18:42.856Z,73.02
2022-11-06T19:21:11.175Z,73.21
2022-11-06T19:23:39.837Z,73.22
2022-11-06T19:26:30.052Z,73.13
2022-11-06T19:28:58.314Z,73.12
2022-11-06T19:31:29.186Z,73.15
2022-11-06T19:33:57.508Z,73.26
2022-11-06T19:36:25.241Z,74.36
2022-11-06T19:38:52.520Z,75.69
2022-11-06T19:41:19.343Z,76.75
2022-11-06T19:43:45.944Z,77.27
2022-11-06T19:46:12.573Z,77.29
2022-11-06T19:48:39.144Z,77.76
2022-11-06T19:51:10.273Z,78.20
2022-11-06T19:53:37.167Z,78.28
2022-11-06T19:56:05.189Z,78.00
2022-11-06T19:58:32.467Z,78.45
2022-11-06T20:00:59.113Z,78.48
2022-11-06T20:03:25.793Z,78.51
2022-11-06T20:05:53.371Z,78.29
2022-11-06T20:08:19.962Z,78.10
2022-11-06T20:10:47.239Z,77.99
2022-11-06T20:13:14.173Z,77.23
2022-11-06T20:15:41.031Z,77.62
2022-11-06T20:18:07.627Z,77.42
2022-11-06T20:20:36.584Z,76.87
2022-11-06T20:23:03.715Z,77.55
2022-11-06T20:25:30.309Z,77.76
2022-11-06T20:27:56.937Z,77.28
2022-11-06T20:30:23.576Z,77.62
2022-11-06T20:32:50.111Z,77.21
2022-11-06T20:35:18.248Z,76.86
2022-11-06T20:37:45.439Z,77.47
2022-11-06T20:40:12.461Z,77.27
2022-11-06T20:42:39.875Z,77.19
2022-11-06T20:45:07.609Z,76.49
2022-11-06T20:47:34.204Z,76.75
2022-11-06T20:50:00.740Z,76.52
2022-11-06T20:52:27.269Z,76.69
2022-11-06T20:54:53.776Z,76.78
2022-11-06T20:57:20.342Z,77.47
2022-11-06T20:59:46.932Z,77.92
2022-11-06T21:02:13.650Z,77.65
2022-11-06T21:04:40.292Z,77.87
2022-11-06T21:07:06.853Z,78.11
2022-11-06T21:09:33.431Z,77.35
2022-11-06T21:11:59.979Z,77.78
2022-11-06T21:14:26.597Z,78.00
2022-11-06T21:16:54.086Z,78.15
2022-11-06T21:19:20.677Z,78.06
2022-11-06T21:21:47.209Z,78.59
2022-11-06T21:24:13.859Z,78.79
2022-11-06T21:26:40.395Z,78.31
2022-11-06T21:29:10.598Z,78.46
2022-11-06T21:31:47.590Z,79.01
2022-11-06T21:34:16.233Z,79.10
2022-11-06T21:36:42.781Z,79.08
2022-11-06T21:39:16.281Z,79.06
2022-11-06T21:41:43.572Z,79.38
2022-11-06T21:44:16.892Z,79.72
2022-11-06T21:46:45.566Z,79.60
2022-11-06T21:49:12.824Z,79.99
2022-11-06T21:51:39.473Z,80.34
2022-11-06T21:54:24.759Z,80.56
2022-11-06T21:56:51.295Z,80.59
2022-11-06T21:59:19.603Z,80.51
2022-11-06T22:01:46.375Z,80.20
2022-11-06T22:04:13.004Z,80.50
2022-11-06T22:06:41.987Z,80.78
2022-11-06T22:09:09.728Z,80.96
2022-11-06T22:11:39.303Z,80.84
2022-11-06T22:14:11.026Z,81.28
2022-11-06T22:16:40.095Z,81.60
2022-11-06T22:19:08.104Z,81.77
2022-11-06T22:21:36.863Z,82.25
2022-11-06T22:24:03.898Z,81.95
2022-11-06T22:26:32.942Z,82.73
2022-11-06T22:29:01.535Z,82.27
2022-11-06T22:31:29.402Z,82.09
2022-11-06T22:33:56.358Z,82.41
2022-11-06T22:36:23.939Z,82.24
2022-11-06T22:38:51.219Z,82.00
2022-11-06T22:41:21.230Z,81.87
2022-11-06T22:43:47.938Z,81.88
2022-11-06T22:46:22.887Z,82.44
2022-11-06T22:48:51.450Z,82.24
2022-11-06T22:51:20.276Z,82.54
2022-11-06T22:53:47.135Z,81.99
2022-11-06T22:56:14.124Z,81.98
2022-11-06T22:58:41.618Z,82.29
2022-11-06T23:01:09.795Z,82.22
2022-11-06T23:03:36.863Z,82.11
2022-11-06T23:06:09.494Z,82.40
2022-11-06T23:08:42.915Z,82.17
2022-11-06T23:11:13.849Z,82.36
2022-11-06T23:13:40.698Z,82.52
2022-11-06T23:16:10.264Z,82.48
2022-11-06T23:18:37.267Z,82.67
2022-11-06T23:21:20.122Z,82.74
2022-11-06T23:23:46.614Z,82.47
2022-11-06T23:26:19.273Z,82.80
2022-11-06T23:28:46.562Z,83.22
2022-11-06T23:31:15.229Z,83.51
2022-11-06T23:33:44.638Z,84.03
2022-11-06T23:36:13.325Z,83.83
2022-11-06T23:38:40.687Z,84.35
2022-11-06T23:41:26.778Z,84.38
2022-11-06T23:43:54.294Z,84.18
2022-11-06T23:46:23.328Z,84.30
2022-11-06T23:48:49.867Z,85.06
2022-11-06T23:51:16.574Z,85.01
2022-11-06T23:53:43.087Z,84.86
2022-11-06T23:56:11.688Z,85.21
2022-11-06T23:58:39.129Z,85.79
